Time;durP1;ratioP1;P1;durP2;ratioP2;P2;SDS_P1;SDS_P2;PMS_P1;PMS_P2;Temp;Humidity;BMP_temperature;BMP_pressure;BME280_temperature;BME280_humidity;BME280_pressure;Samples;Min_cycle;Max_cycle;Signal;HPM_P1;HPM_P2
2021/08/02 00:01:59;;;;;;;3.13;1.43;;;14.30;99.90;;;;;;5045880;28;20222;-47
2021/08/02 00:04:31;;;;;;;4.00;1.20;;;14.30;99.90;;;;;;5043654;28;20301;-47
2021/08/02 00:07:05;;;;;;;2.33;1.20;;;14.30;99.90;;;;;;5030516;28;20224;-50
2021/08/02 00:09:35;;;;;;;3.77;1.10;;;14.30;99.90;;;;;;5042460;28;20296;-48
2021/08/02 00:12:07;;;;;;;2.60;1.33;;;14.30;99.90;;;;;;5046351;28;20196;-48
2021/08/02 00:14:34;;;;;;;2.83;1.07;;;14.30;99.90;;;;;;5041584;28;20190;-49
2021/08/02 00:17:02;;;;;;;2.07;1.27;;;14.30;99.90;;;;;;5046206;28;20221;-51
2021/08/02 00:19:29;;;;;;;3.23;1.03;;;14.30;99.90;;;;;;5042522;28;20558;-47
2021/08/02 00:21:57;;;;;;;3.53;1.20;;;14.30;99.90;;;;;;5029112;28;20230;-48
2021/08/02 00:24:25;;;;;;;2.63;1.13;;;14.30;99.90;;;;;;5042191;28;20206;-46
2021/08/02 00:26:53;;;;;;;3.10;1.23;;;14.30;99.90;;;;;;5043958;28;20204;-46
2021/08/02 00:29:21;;;;;;;3.37;1.30;;;14.30;99.90;;;;;;5042687;28;20196;-46
2021/08/02 00:31:49;;;;;;;1.87;1.30;;;14.30;99.90;;;;;;5042379;28;20263;-47
2021/08/02 00:34:16;;;;;;;2.77;1.13;;;14.30;99.90;;;;;;5043849;28;20541;-44
2021/08/02 00:36:45;;;;;;;1.33;1.03;;;14.30;99.90;;;;;;5026175;28;21086;-45
2021/08/02 00:39:20;;;;;;;6.67;1.70;;;14.30;99.90;;;;;;5043693;28;20207;-45
2021/08/02 00:42:27;;;;;;;4.67;1.40;;;14.30;99.90;;;;;;5042578;28;20215;-48
2021/08/02 00:45:15;;;;;;;2.70;1.10;;;14.30;99.90;;;;;;5029780;28;20199;-47
2021/08/02 00:47:47;;;;;;;2.60;1.27;;;14.30;99.90;;;;;;5040732;28;20215;-44
2021/08/02 00:50:17;;;;;;;3.57;1.57;;;14.30;99.90;;;;;;5042197;28;20677;-45
2021/08/02 00:52:50;;;;;;;2.83;0.93;;;14.30;99.90;;;;;;5026301;28;20974;-46
2021/08/02 00:55:18;;;;;;;7.87;1.37;;;14.30;99.90;;;;;;5042872;28;20195;-45
2021/08/02 00:57:48;;;;;;;4.73;1.00;;;14.30;99.90;;;;;;5040711;28;20210;-52
2021/08/02 01:00:19;;;;;;;2.93;1.20;;;14.30;99.90;;;;;;5043619;28;20231;-49
2021/08/02 01:02:53;;;;;;;2.83;1.00;;;14.40;99.90;;;;;;5042187;28;20218;-47
2021/08/02 01:05:21;;;;;;;3.20;1.13;;;14.30;99.90;;;;;;5040989;28;20234;-47
2021/08/02 01:07:56;;;;;;;2.70;1.20;;;14.30;99.90;;;;;;5027097;28;20938;-47
2021/08/02 01:10:23;;;;;;;2.83;1.13;;;14.30;99.90;;;;;;5041294;28;20615;-46
2021/08/02 01:12:52;;;;;;;4.13;1.20;;;14.30;99.90;;;;;;5041008;28;20556;-46
2021/08/02 01:15:21;;;;;;;3.60;1.13;;;14.30;99.90;;;;;;5041238;28;20282;-45
2021/08/02 01:17:48;;;;;;;3.13;1.10;;;14.30;99.90;;;;;;5042757;28;20217;-51
2021/08/02 01:20:16;;;;;;;1.77;1.10;;;14.30;99.90;;;;;;5008703;28;983746;-46
2021/08/02 01:22:46;;;;;;;1.83;1.50;;;14.40;99.90;;;;;;5025640;28;21085;-48
2021/08/02 01:25:58;;;;;;;4.00;1.30;;;14.30;99.90;;;;;;5039398;28;20282;-43
2021/08/02 01:29:04;;;;;;;2.20;1.07;;;14.30;99.90;;;;;;5021510;28;20261;-43
2021/08/02 01:31:31;;;;;;;5.60;1.40;;;14.30;99.90;;;;;;5020320;28;20224;-43
2021/08/02 01:33:58;;;;;;;5.50;1.50;;;14.30;99.90;;;;;;5023862;28;20203;-53
2021/08/02 01:36:26;;;;;;;6.70;1.37;;;14.20;99.90;;;;;;5021274;28;20224;-46
2021/08/02 01:38:57;;;;;;;1.87;1.20;;;14.20;99.90;;;;;;5030164;28;20239;-48
2021/08/02 01:41:30;;;;;;;2.20;1.50;;;14.20;99.90;;;;;;5039318;28;20688;-47
2021/08/02 01:43:58;;;;;;;3.13;0.80;;;14.20;99.90;;;;;;5051823;28;20676;-48
2021/08/02 01:46:34;;;;;;;3.03;1.13;;;14.20;99.90;;;;;;5060608;28;20719;-47
2021/08/02 01:49:08;;;;;;;4.23;1.20;;;14.20;99.90;;;;;;5063011;28;20281;-48
2021/08/02 01:51:38;;;;;;;1.10;0.90;;;14.20;99.90;;;;;;5059599;28;20187;-48
2021/08/02 01:54:16;;;;;;;3.10;1.30;;;14.20;99.90;;;;;;5039293;28;20211;-52
2021/08/02 01:56:50;;;;;;;2.97;1.30;;;14.20;99.90;;;;;;5041616;28;20203;-49
2021/08/02 01:59:22;;;;;;;4.20;1.20;;;14.20;99.90;;;;;;5041387;28;20245;-46
2021/08/02 02:01:56;;;;;;;3.00;1.30;;;14.20;99.90;;;;;;5043060;28;20191;-51
2021/08/02 02:04:28;;;;;;;2.77;0.87;;;14.20;99.90;;;;;;5042010;28;20192;-47
2021/08/02 02:06:58;;;;;;;1.50;1.40;;;14.20;99.90;;;;;;5044002;28;20204;-49
2021/08/02 02:09:39;;;;;;;2.57;1.20;;;14.20;99.90;;;;;;5023654;28;20188;-48
2021/08/02 02:12:11;;;;;;;2.87;1.23;;;14.20;99.90;;;;;;5039237;28;20249;-48
2021/08/02 02:14:40;;;;;;;2.07;1.30;;;14.20;99.90;;;;;;5038591;28;20188;-47
2021/08/02 02:17:15;;;;;;;3.13;1.03;;;14.20;99.90;;;;;;5041948;28;20219;-45
2021/08/02 02:19:43;;;;;;;3.47;1.03;;;14.20;99.90;;;;;;5041112;28;20270;-48
2021/08/02 02:22:14;;;;;;;3.10;1.20;;;14.20;99.90;;;;;;5042105;28;20225;-47
2021/08/02 02:24:46;;;;;;;2.40;1.40;;;14.20;99.90;;;;;;5024613;28;20215;-47
2021/08/02 02:27:17;;;;;;;4.47;1.13;;;14.20;99.90;;;;;;5041231;28;20245;-46
2021/08/02 02:29:52;;;;;;;2.60;1.10;;;14.20;99.90;;;;;;5043002;28;20199;-49
2021/08/02 02:32:19;;;;;;;3.57;1.27;;;14.30;99.90;;;;;;5040950;28;20202;-45
2021/08/02 02:34:50;;;;;;;2.97;1.50;;;14.20;99.90;;;;;;5041441;28;20923;-48
2021/08/02 02:37:24;;;;;;;6.00;1.27;;;14.20;99.90;;;;;;5042357;28;20273;-47
2021/08/02 02:39:54;;;;;;;4.93;1.80;;;14.20;99.90;;;;;;5042679;28;20201;-48
2021/08/02 02:42:23;;;;;;;1.30;1.17;;;14.30;99.90;;;;;;5025328;28;20223;-44
2021/08/02 02:44:51;;;;;;;1.97;1.00;;;14.20;99.90;;;;;;5042378;28;20187;-48
2021/08/02 02:47:18;;;;;;;4.47;1.20;;;14.20;99.90;;;;;;5041976;28;20619;-49
2021/08/02 02:49:45;;;;;;;2.80;1.33;;;14.20;99.90;;;;;;5041032;28;20938;-48
2021/08/02 02:52:13;;;;;;;2.33;1.03;;;14.20;99.90;;;;;;5043270;28;20195;-46
2021/08/02 02:54:45;;;;;;;2.17;1.00;;;14.20;99.90;;;;;;5039265;28;20201;-49
2021/08/02 02:57:14;;;;;;;2.13;1.33;;;14.20;99.90;;;;;;5027124;28;20232;-47
2021/08/02 02:59:41;;;;;;;5.03;1.17;;;14.20;99.90;;;;;;5040263;28;20223;-48
2021/08/02 03:02:10;;;;;;;2.83;1.00;;;14.20;99.90;;;;;;5042001;28;20584;-49
2021/08/02 03:04:45;;;;;;;2.67;1.50;;;14.20;99.90;;;;;;5039455;28;20226;-48
2021/08/02 03:07:15;;;;;;;2.70;1.10;;;14.20;99.90;;;;;;5041702;28;20301;-45
2021/08/02 03:09:47;;;;;;;2.13;1.07;;;14.20;99.90;;;;;;5041162;28;20183;-49
2021/08/02 03:12:16;;;;;;;3.90;1.20;;;14.20;99.90;;;;;;5025749;28;20207;-46
2021/08/02 03:14:44;;;;;;;3.37;0.80;;;14.10;99.90;;;;;;5038303;28;20280;-52
2021/08/02 03:17:10;;;;;;;5.03;1.83;;;14.10;99.90;;;;;;5043165;28;20219;-50
2021/08/02 03:19:38;;;;;;;2.50;1.20;;;14.10;99.90;;;;;;5038974;28;20184;-52
2021/08/02 03:22:16;;;;;;;3.97;1.10;;;14.10;99.90;;;;;;5043105;28;20199;-52
2021/08/02 03:24:46;;;;;;;4.83;1.63;;;14.10;99.90;;;;;;5040726;28;20195;-50
2021/08/02 03:27:22;;;;;;;2.30;1.00;;;14.10;99.90;;;;;;5026277;28;20223;-47
2021/08/02 03:29:52;;;;;;;2.93;1.30;;;14.10;99.90;;;;;;5041275;28;20193;-51
2021/08/02 03:32:21;;;;;;;5.33;1.40;;;14.10;99.90;;;;;;5041686;28;20683;-45
2021/08/02 03:34:53;;;;;;;2.47;1.40;;;14.10;99.90;;;;;;5041375;28;20920;-50
2021/08/02 03:37:22;;;;;;;2.50;1.10;;;14.10;99.90;;;;;;5031586;28;20227;-50
2021/08/02 03:39:50;;;;;;;8.60;1.47;;;14.10;99.90;;;;;;5039834;28;20661;-47
2021/08/02 03:42:18;;;;;;;2.87;1.33;;;14.10;99.90;;;;;;5026455;28;20215;-48
2021/08/02 03:44:48;;;;;;;4.87;1.50;;;14.10;99.90;;;;;;5040261;28;20192;-45
2021/08/02 03:47:15;;;;;;;3.30;1.33;;;14.10;99.90;;;;;;5041814;28;20209;-47
2021/08/02 03:49:41;;;;;;;5.50;2.23;;;14.10;99.90;;;;;;5041787;28;20207;-46
2021/08/02 03:52:08;;;;;;;3.23;1.20;;;14.10;99.90;;;;;;5040723;28;20184;-49
2021/08/02 03:54:35;;;;;;;3.23;1.70;;;14.10;99.90;;;;;;5043291;28;20214;-47
2021/08/02 03:57:02;;;;;;;3.73;1.40;;;14.10;99.90;;;;;;5038794;28;20207;-48
2021/08/02 03:59:29;;;;;;;2.77;1.73;;;14.10;99.90;;;;;;5021067;28;20234;-47
2021/08/02 04:01:57;;;;;;;2.07;1.53;;;14.10;99.90;;;;;;5031546;28;20286;-49
2021/08/02 04:04:24;;;;;;;6.30;1.53;;;14.10;99.90;;;;;;5042933;28;20214;-49
2021/08/02 04:06:51;;;;;;;3.33;1.80;;;14.10;99.90;;;;;;5036266;28;20265;-47
2021/08/02 04:09:17;;;;;;;2.33;1.10;;;14.10;99.90;;;;;;5041258;28;20234;-51
2021/08/02 04:11:45;;;;;;;3.00;1.40;;;14.10;99.90;;;;;;5040677;28;20222;-48
2021/08/02 04:14:12;;;;;;;2.43;1.50;;;14.10;99.90;;;;;;5024934;28;20280;-53
2021/08/02 04:16:39;;;;;;;7.43;1.40;;;14.10;99.90;;;;;;5045590;28;20314;-47
2021/08/02 04:19:07;;;;;;;3.77;1.80;;;14.10;99.90;;;;;;5043976;28;20184;-47
2021/08/02 04:21:34;;;;;;;2.33;1.33;;;14.20;99.90;;;;;;5046647;28;20195;-48
2021/08/02 04:24:01;;;;;;;3.90;1.43;;;14.20;99.90;;;;;;5036006;28;20229;-48
2021/08/02 04:26:28;;;;;;;4.13;1.40;;;14.20;99.90;;;;;;5046268;28;20218;-48
2021/08/02 04:28:56;;;;;;;1.80;1.30;;;14.20;99.90;;;;;;5026349;28;20818;-49
2021/08/02 04:31:24;;;;;;;3.57;1.43;;;14.30;99.90;;;;;;5044585;28;20692;-48
2021/08/02 04:33:51;;;;;;;3.10;1.27;;;14.30;99.90;;;;;;5042847;28;20598;-46
2021/08/02 04:36:19;;;;;;;2.67;1.33;;;14.30;99.90;;;;;;5045811;28;20211;-52
2021/08/02 04:38:46;;;;;;;4.50;1.27;;;14.30;99.90;;;;;;5043627;28;20669;-46
2021/08/02 04:41:13;;;;;;;1.20;1.10;;;14.20;99.90;;;;;;5043709;28;20864;-49
2021/08/02 04:43:40;;;;;;;2.47;1.27;;;14.20;99.90;;;;;;5040377;28;20222;-46
2021/08/02 04:46:07;;;;;;;2.03;1.40;;;14.20;99.90;;;;;;5028834;28;20294;-48
2021/08/02 04:48:35;;;;;;;5.33;1.80;;;14.30;99.90;;;;;;5045922;28;20283;-50
2021/08/02 04:51:02;;;;;;;5.23;1.37;;;14.30;99.90;;;;;;5041614;28;20931;-51
2021/08/02 04:53:30;;;;;;;2.57;1.70;;;14.30;99.90;;;;;;5046160;28;20191;-51
2021/08/02 04:55:57;;;;;;;2.27;1.50;;;14.30;99.90;;;;;;5041886;28;20180;-49
2021/08/02 04:58:23;;;;;;;1.33;1.10;;;14.30;99.90;;;;;;5046073;28;20202;-52
2021/08/02 05:00:50;;;;;;;2.87;1.30;;;14.30;99.90;;;;;;5020536;28;20214;-46
2021/08/02 05:03:17;;;;;;;1.40;0.90;;;14.30;99.90;;;;;;5040352;28;20223;-51
2021/08/02 05:05:43;;;;;;;4.80;1.27;;;14.30;99.90;;;;;;5034257;28;20211;-48
2021/08/02 05:08:10;;;;;;;3.67;1.20;;;14.30;99.90;;;;;;5033280;28;20218;-46
2021/08/02 05:10:38;;;;;;;5.33;1.67;;;14.40;99.90;;;;;;5027481;28;20940;-46
2021/08/02 05:13:05;;;;;;;7.20;1.23;;;14.40;99.90;;;;;;5038584;28;20597;-46
2021/08/02 05:15:32;;;;;;;5.67;1.43;;;14.40;99.90;;;;;;5024154;28;20207;-51
2021/08/02 05:17:58;;;;;;;2.30;1.13;;;14.40;99.90;;;;;;5044755;28;20239;-48
2021/08/02 05:20:25;;;;;;;3.50;1.20;;;14.50;99.90;;;;;;5034559;28;20195;-52
2021/08/02 05:22:52;;;;;;;3.67;1.47;;;14.50;99.90;;;;;;5039833;28;20584;-48
2021/08/02 05:25:20;;;;;;;1.87;1.40;;;14.50;99.90;;;;;;5036186;28;20865;-44
2021/08/02 05:27:53;;;;;;;2.47;1.17;;;14.50;99.90;;;;;;5040170;28;20219;-51
2021/08/02 05:30:20;;;;;;;8.30;1.67;;;14.60;99.90;;;;;;5021107;28;20711;-45
2021/08/02 05:32:47;;;;;;;1.70;1.10;;;14.60;99.90;;;;;;5025735;28;20198;-48
2021/08/02 05:35:14;;;;;;;2.37;1.17;;;14.70;99.90;;;;;;5038333;28;20199;-46
2021/08/02 05:37:41;;;;;;;4.17;1.40;;;14.70;99.90;;;;;;5038116;28;20243;-44
2021/08/02 05:40:10;;;;;;;4.13;1.23;;;14.70;99.90;;;;;;5029030;28;20209;-49
2021/08/02 05:42:37;;;;;;;6.33;1.63;;;14.70;99.90;;;;;;5030384;28;20196;-47
2021/08/02 05:45:07;;;;;;;3.97;1.07;;;14.80;99.90;;;;;;5020555;28;20203;-49
2021/08/02 05:47:34;;;;;;;3.50;1.10;;;14.80;99.90;;;;;;5037331;28;20219;-45
2021/08/02 05:50:01;;;;;;;3.17;1.30;;;14.80;99.90;;;;;;5039148;28;20190;-51
2021/08/02 05:52:27;;;;;;;3.70;1.20;;;14.90;99.90;;;;;;5037189;28;20204;-48
2021/08/02 05:54:54;;;;;;;2.03;1.20;;;14.80;99.90;;;;;;5029548;28;20223;-49
2021/08/02 05:57:21;;;;;;;4.93;1.33;;;14.80;99.90;;;;;;5037953;28;20638;-49
2021/08/02 05:59:48;;;;;;;2.53;1.13;;;14.80;99.90;;;;;;5036269;28;20199;-48
2021/08/02 06:02:16;;;;;;;3.47;1.60;;;14.80;99.90;;;;;;5027879;28;20207;-48
2021/08/02 06:04:43;;;;;;;7.60;1.60;;;14.90;99.90;;;;;;5041868;28;20218;-45
2021/08/02 06:07:10;;;;;;;3.53;1.47;;;14.90;99.90;;;;;;5039852;28;20223;-48
2021/08/02 06:09:36;;;;;;;3.90;1.30;;;15.00;99.90;;;;;;5042313;28;20191;-46
2021/08/02 06:12:03;;;;;;;2.67;1.23;;;15.00;99.90;;;;;;5030302;28;20202;-52
2021/08/02 06:14:30;;;;;;;2.10;1.27;;;15.10;99.90;;;;;;5043947;28;20192;-48
2021/08/02 06:16:56;;;;;;;1.40;1.10;;;15.20;99.90;;;;;;5011569;28;20227;-49
2021/08/02 06:19:24;;;;;;;4.57;1.27;;;15.20;99.90;;;;;;5029313;28;20211;-47
2021/08/02 06:21:51;;;;;;;2.27;1.10;;;15.30;99.90;;;;;;5029812;28;20209;-46
2021/08/02 06:24:17;;;;;;;3.50;1.50;;;15.40;99.90;;;;;;5033777;28;20207;-52
2021/08/02 06:26:44;;;;;;;4.07;1.20;;;15.50;99.90;;;;;;5021927;28;20226;-45
2021/08/02 06:29:11;;;;;;;2.87;1.10;;;15.60;99.90;;;;;;5037319;28;20220;-48
2021/08/02 06:31:37;;;;;;;4.27;1.37;;;15.60;99.90;;;;;;5024246;28;20609;-46
2021/08/02 06:34:04;;;;;;;2.83;1.10;;;15.60;99.90;;;;;;5027746;28;20282;-48
2021/08/02 06:36:32;;;;;;;6.47;1.50;;;15.70;99.90;;;;;;5041323;28;20215;-47
2021/08/02 06:38:59;;;;;;;2.17;1.63;;;15.70;99.90;;;;;;5034431;28;20187;-48
2021/08/02 06:41:26;;;;;;;1.50;1.10;;;15.70;99.90;;;;;;5037291;28;20195;-46
2021/08/02 06:43:52;;;;;;;1.63;0.80;;;15.70;99.90;;;;;;5038384;28;20915;-48
2021/08/02 06:46:19;;;;;;;3.27;1.33;;;15.70;99.90;;;;;;5044025;28;20213;-51
2021/08/02 06:48:46;;;;;;;3.03;1.07;;;15.80;99.90;;;;;;5024156;28;20223;-44
2021/08/02 06:51:13;;;;;;;2.07;0.83;;;15.90;99.90;;;;;;5043280;28;20191;-48
2021/08/02 06:53:40;;;;;;;3.67;1.60;;;16.00;99.90;;;;;;5041963;28;20767;-43
2021/08/02 06:56:07;;;;;;;2.77;1.10;;;16.00;99.90;;;;;;5040672;28;20199;-49
2021/08/02 06:58:34;;;;;;;2.97;1.20;;;15.90;99.90;;;;;;5037358;28;20214;-46
2021/08/02 07:01:00;;;;;;;3.93;1.13;;;15.80;99.90;;;;;;5040764;28;20199;-51
2021/08/02 07:03:27;;;;;;;1.30;0.90;;;15.80;99.90;;;;;;5027604;28;20219;-51
2021/08/02 07:05:53;;;;;;;3.07;1.10;;;15.70;99.90;;;;;;5038291;28;20824;-51
2021/08/02 07:08:20;;;;;;;3.77;1.93;;;15.70;99.90;;;;;;5043821;28;20649;-46
2021/08/02 07:10:48;;;;;;;2.80;1.00;;;15.70;99.90;;;;;;5039652;28;21379;-44
2021/08/02 07:13:15;;;;;;;2.43;1.27;;;15.70;99.90;;;;;;5038559;28;20213;-45
2021/08/02 07:15:42;;;;;;;3.77;1.20;;;15.50;99.90;;;;;;5028372;28;20561;-47
2021/08/02 07:18:09;;;;;;;3.17;0.90;;;15.30;99.90;;;;;;5022086;28;20994;-48
2021/08/02 07:20:36;;;;;;;6.47;1.50;;;15.20;99.90;;;;;;5028963;28;20286;-44
2021/08/02 07:23:03;;;;;;;3.27;1.40;;;15.10;99.90;;;;;;5018959;28;20204;-45
2021/08/02 07:25:30;;;;;;;3.63;1.60;;;15.00;99.90;;;;;;5032521;28;20200;-50
2021/08/02 07:27:58;;;;;;;1.83;1.27;;;14.80;99.90;;;;;;5028739;28;21065;-52
2021/08/02 07:30:25;;;;;;;1.73;1.20;;;14.80;99.90;;;;;;5029937;28;20218;-47
2021/08/02 07:32:51;;;;;;;5.10;1.20;;;14.80;99.90;;;;;;5016925;28;20207;-51
2021/08/02 07:35:18;;;;;;;2.93;1.50;;;14.80;99.90;;;;;;5032702;28;20556;-50
2021/08/02 07:37:45;;;;;;;2.47;1.57;;;14.80;99.90;;;;;;5028819;28;20220;-48
2021/08/02 07:40:12;;;;;;;3.07;1.57;;;14.90;99.90;;;;;;5032358;28;20203;-44
2021/08/02 07:42:38;;;;;;;3.70;2.63;;;15.00;99.90;;;;;;5031333;28;20199;-50
2021/08/02 07:45:07;;;;;;;2.40;1.77;;;15.00;99.90;;;;;;5033406;28;20947;-46
2021/08/02 07:47:34;;;;;;;2.57;1.40;;;15.10;99.90;;;;;;5031894;28;20207;-50
2021/08/02 07:50:01;;;;;;;1.40;1.30;;;15.20;99.90;;;;;;5026655;28;20197;-51
2021/08/02 07:52:27;;;;;;;2.17;1.70;;;15.20;99.90;;;;;;5037258;28;20207;-51
2021/08/02 07:54:54;;;;;;;3.43;2.50;;;15.20;99.90;;;;;;5043458;28;20678;-50
2021/08/02 07:57:21;;;;;;;3.37;1.90;;;15.20;99.90;;;;;;5034051;28;20211;-46
2021/08/02 07:59:47;;;;;;;6.33;1.77;;;15.30;99.90;;;;;;5033997;28;20223;-50
2021/08/02 08:02:16;;;;;;;2.43;1.73;;;15.30;99.90;;;;;;5038829;28;20207;-48
2021/08/02 08:04:42;;;;;;;5.50;1.83;;;15.20;99.90;;;;;;5028324;28;20221;-48
2021/08/02 08:07:09;;;;;;;2.83;1.10;;;15.30;99.90;;;;;;5040076;28;20704;-44
2021/08/02 08:09:36;;;;;;;2.43;1.40;;;15.40;99.90;;;;;;5032962;28;20195;-50
2021/08/02 08:12:03;;;;;;;2.00;0.93;;;15.40;99.90;;;;;;5038177;28;20207;-51
2021/08/02 08:14:30;;;;;;;2.60;1.20;;;15.50;99.90;;;;;;5035500;28;20180;-50
2021/08/02 08:16:56;;;;;;;3.10;1.20;;;15.50;99.90;;;;;;5034092;28;20601;-47
2021/08/02 08:19:24;;;;;;;3.70;1.10;;;15.60;99.90;;;;;;5028911;28;20199;-44
2021/08/02 08:21:51;;;;;;;6.90;1.70;;;15.60;99.90;;;;;;5039641;28;20200;-49
2021/08/02 08:24:18;;;;;;;8.40;1.57;;;15.70;99.90;;;;;;5044251;28;20223;-46
2021/08/02 08:26:44;;;;;;;2.20;1.50;;;15.90;99.90;;;;;;5029536;28;20220;-49
2021/08/02 08:29:11;;;;;;;3.37;1.37;;;16.10;99.90;;;;;;5044249;28;20554;-49
2021/08/02 08:31:38;;;;;;;1.67;1.10;;;16.20;99.90;;;;;;5024209;28;20219;-48
2021/08/02 08:34:04;;;;;;;3.57;0.90;;;16.40;99.90;;;;;;5044267;28;20196;-48
2021/08/02 08:36:33;;;;;;;3.00;1.10;;;16.50;99.90;;;;;;5024174;28;20999;-47
2021/08/02 08:38:59;;;;;;;4.40;0.80;;;16.50;99.90;;;;;;5040382;28;20572;-47
2021/08/02 08:41:26;;;;;;;4.77;1.13;;;16.50;99.90;;;;;;5040970;28;20196;-45
2021/08/02 08:43:54;;;;;;;2.13;1.00;;;16.50;99.90;;;;;;5043062;28;20303;-51
2021/08/02 08:46:22;;;;;;;2.70;1.30;;;16.50;99.90;;;;;;5029349;28;20230;-44
2021/08/02 08:48:49;;;;;;;2.00;1.20;;;16.60;99.90;;;;;;5038727;28;20215;-47
2021/08/02 08:51:16;;;;;;;2.90;1.20;;;16.60;99.90;;;;;;5021181;28;20208;-47
2021/08/02 08:53:46;;;;;;;1.87;1.13;;;16.70;99.90;;;;;;5036112;28;20971;-48
2021/08/02 08:56:15;;;;;;;1.87;0.90;;;16.80;99.90;;;;;;5032065;28;20294;-47
2021/08/02 08:58:43;;;;;;;2.40;1.17;;;16.80;99.90;;;;;;5032321;28;20184;-46
2021/08/02 09:01:10;;;;;;;2.50;1.00;;;16.80;99.90;;;;;;5039025;28;20199;-47
2021/08/02 09:03:36;;;;;;;2.30;0.93;;;16.80;99.90;;;;;;5033529;28;20211;-50
2021/08/02 09:06:04;;;;;;;3.13;0.90;;;16.60;99.90;;;;;;5041765;28;20577;-48
2021/08/02 09:08:39;;;;;;;1.67;1.03;;;16.50;99.90;;;;;;5021085;28;20908;-49
2021/08/02 09:11:08;;;;;;;2.27;1.10;;;16.50;99.90;;;;;;5034489;28;20198;-46
2021/08/02 09:13:36;;;;;;;1.67;1.00;;;16.50;99.90;;;;;;5040926;28;20192;-46
2021/08/02 09:16:12;;;;;;;1.20;1.10;;;16.50;99.90;;;;;;5035111;28;20192;-48
2021/08/02 09:18:39;;;;;;;3.00;0.93;;;16.40;99.90;;;;;;5032191;28;20207;-48
2021/08/02 09:21:07;;;;;;;4.73;0.90;;;16.30;99.90;;;;;;5023453;28;20207;-52
2021/08/02 09:23:34;;;;;;;4.20;1.67;;;16.30;99.90;;;;;;5018419;28;20203;-48
2021/08/02 09:26:01;;;;;;;1.10;1.00;;;16.10;99.90;;;;;;5037904;28;20215;-49
2021/08/02 09:28:30;;;;;;;1.17;0.80;;;16.00;99.90;;;;;;5029162;28;20813;-48
2021/08/02 09:30:59;;;;;;;2.90;1.00;;;15.90;99.90;;;;;;5038285;28;20202;-47
2021/08/02 09:33:27;;;;;;;2.60;1.63;;;15.90;99.90;;;;;;5036351;28;20223;-47
2021/08/02 09:35:54;;;;;;;3.13;1.60;;;15.80;99.90;;;;;;5034553;28;20222;-51
2021/08/02 09:38:24;;;;;;;4.93;1.40;;;15.80;99.90;;;;;;5025802;28;20208;-49
2021/08/02 09:40:53;;;;;;;3.03;1.00;;;15.80;99.90;;;;;;5038380;28;20211;-50
2021/08/02 09:43:21;;;;;;;1.10;0.97;;;15.90;99.90;;;;;;5040158;28;20694;-44
2021/08/02 09:45:50;;;;;;;3.80;1.67;;;15.90;99.90;;;;;;5029929;28;20227;-45
2021/08/02 09:48:19;;;;;;;1.73;1.63;;;16.10;99.90;;;;;;5035010;28;20218;-49
2021/08/02 09:50:47;;;;;;;2.53;1.60;;;16.20;99.90;;;;;;5031423;28;20211;-50
2021/08/02 09:53:15;;;;;;;1.57;1.33;;;16.40;99.90;;;;;;5036124;28;20195;-44
2021/08/02 09:55:43;;;;;;;3.67;1.40;;;16.50;99.90;;;;;;5030075;28;20212;-51
2021/08/02 09:58:14;;;;;;;1.83;1.10;;;16.60;99.90;;;;;;5043949;28;20215;-46
2021/08/02 10:00:41;;;;;;;3.43;1.50;;;16.60;99.90;;;;;;5023540;28;20284;-48
2021/08/02 10:03:09;;;;;;;4.20;1.90;;;16.60;99.90;;;;;;5037606;28;20206;-47
2021/08/02 10:05:38;;;;;;;2.07;1.57;;;16.70;99.90;;;;;;5038615;28;20218;-45
2021/08/02 10:08:06;;;;;;;2.53;1.27;;;16.70;99.90;;;;;;5035782;28;20229;-50
2021/08/02 10:10:36;;;;;;;1.77;1.40;;;16.70;99.90;;;;;;5023537;28;20210;-51
2021/08/02 10:13:02;;;;;;;3.90;1.30;;;16.80;99.90;;;;;;5034345;28;20195;-49
2021/08/02 10:15:29;;;;;;;3.37;1.23;;;16.90;99.90;;;;;;5041240;28;20191;-49
2021/08/02 10:17:58;;;;;;;4.73;1.60;;;17.20;99.90;;;;;;5030948;28;20291;-49
2021/08/02 10:20:28;;;;;;;4.63;1.60;;;17.40;99.90;;;;;;5035127;28;20209;-47
2021/08/02 10:22:55;;;;;;;2.47;1.20;;;17.60;99.90;;;;;;5027359;28;20191;-46
2021/08/02 10:25:36;;;;;;;5.40;2.00;;;17.60;99.90;;;;;;5025177;28;20218;-52
2021/08/02 10:28:11;;;;;;;5.80;2.00;;;17.10;99.90;;;;;;5024116;28;20216;-51
2021/08/02 10:30:39;;;;;;;4.57;1.50;;;16.60;99.90;;;;;;5037981;28;20198;-50
2021/08/02 10:33:06;;;;;;;4.47;1.90;;;16.20;99.90;;;;;;5028019;28;20191;-49
2021/08/02 10:35:37;;;;;;;3.60;1.77;;;15.90;99.90;;;;;;5038606;28;20194;-47
2021/08/02 10:38:06;;;;;;;2.20;1.87;;;15.80;99.90;;;;;;5032122;28;20215;-49
2021/08/02 10:40:47;;;;;;;4.77;1.83;;;15.70;99.90;;;;;;5039489;28;20254;-48
2021/08/02 10:43:14;;;;;;;3.50;1.80;;;15.70;99.90;;;;;;5033177;28;20198;-50
2021/08/02 10:45:47;;;;;;;3.80;1.90;;;15.50;99.90;;;;;;5029925;28;20254;-51
2021/08/02 10:48:22;;;;;;;2.23;1.40;;;15.50;99.90;;;;;;5032033;28;20237;-44
2021/08/02 10:50:50;;;;;;;4.67;1.50;;;15.50;99.90;;;;;;5042132;28;20187;-49
2021/08/02 10:53:18;;;;;;;3.37;1.43;;;15.40;99.90;;;;;;5032496;28;20653;-52
2021/08/02 10:55:46;;;;;;;3.70;1.20;;;15.30;99.90;;;;;;5040701;28;20192;-51
2021/08/02 10:58:12;;;;;;;5.00;1.60;;;15.20;99.90;;;;;;5020187;28;20215;-49
2021/08/02 11:00:39;;;;;;;3.17;1.67;;;15.20;99.90;;;;;;5037339;28;20191;-50
2021/08/02 11:03:07;;;;;;;2.77;1.60;;;15.30;99.90;;;;;;5043091;28;20202;-48
2021/08/02 11:05:34;;;;;;;3.70;1.93;;;15.40;99.90;;;;;;5039184;28;20865;-52
2021/08/02 11:08:08;;;;;;;1.50;1.30;;;15.50;99.90;;;;;;5039293;28;20219;-49
2021/08/02 11:10:35;;;;;;;5.23;1.50;;;15.50;99.90;;;;;;5032863;28;20199;-51
2021/08/02 11:13:02;;;;;;;6.67;1.90;;;15.70;99.90;;;;;;5025705;28;20253;-49
2021/08/02 11:15:29;;;;;;;4.17;1.53;;;15.80;99.90;;;;;;5024564;28;20206;-49
2021/08/02 11:17:55;;;;;;;3.63;1.90;;;15.90;99.90;;;;;;5039889;28;20223;-52
2021/08/02 11:20:24;;;;;;;4.00;2.10;;;16.10;99.90;;;;;;5036758;28;20687;-47
2021/08/02 11:22:55;;;;;;;4.13;2.30;;;16.30;99.90;;;;;;5039117;28;20207;-50
2021/08/02 11:25:25;;;;;;;4.70;2.40;;;16.40;99.90;;;;;;5037886;28;20219;-47
2021/08/02 11:27:57;;;;;;;3.20;1.63;;;16.50;99.90;;;;;;5032553;28;20237;-50
2021/08/02 11:30:25;;;;;;;2.80;1.10;;;16.60;99.90;;;;;;5039959;28;20207;-48
2021/08/02 11:32:52;;;;;;;4.97;1.60;;;16.60;99.90;;;;;;5045689;28;20203;-49
2021/08/02 11:35:18;;;;;;;4.43;1.43;;;16.70;99.90;;;;;;5044973;28;20656;-51
2021/08/02 11:37:51;;;;;;;3.53;1.40;;;16.80;99.90;;;;;;5035182;28;20219;-50
2021/08/02 11:40:18;;;;;;;4.23;1.73;;;16.90;99.90;;;;;;5039494;28;20211;-50
2021/08/02 11:42:50;;;;;;;2.73;1.40;;;17.00;99.90;;;;;;5044541;28;20199;-52
2021/08/02 11:45:19;;;;;;;5.20;1.83;;;17.10;99.90;;;;;;5012091;28;20216;-49
2021/08/02 11:47:46;;;;;;;2.77;1.30;;;17.20;99.90;;;;;;5037655;28;20243;-55
2021/08/02 11:50:14;;;;;;;2.30;1.27;;;17.30;99.90;;;;;;5034593;28;20206;-48
2021/08/02 11:52:42;;;;;;;2.77;1.07;;;17.40;99.90;;;;;;5039374;28;20352;-51
2021/08/02 11:55:12;;;;;;;2.20;1.20;;;17.50;99.90;;;;;;5039099;28;20204;-49
2021/08/02 11:57:39;;;;;;;1.80;1.10;;;17.40;99.90;;;;;;5034453;28;20977;-47
2021/08/02 12:00:12;;;;;;;3.40;1.20;;;17.50;99.90;;;;;;5020969;28;20211;-55
2021/08/02 12:02:41;;;;;;;1.03;0.90;;;17.40;99.90;;;;;;5039660;28;20257;-48
2021/08/02 12:05:10;;;;;;;2.20;1.17;;;17.40;99.90;;;;;;5041019;28;20211;-52
2021/08/02 12:07:36;;;;;;;3.20;1.07;;;17.20;99.90;;;;;;5038615;28;20963;-47
2021/08/02 12:10:10;;;;;;;2.97;1.33;;;17.10;99.90;;;;;;5037497;28;20208;-47
2021/08/02 12:12:38;;;;;;;2.93;1.70;;;17.10;99.90;;;;;;5047772;28;20230;-48
2021/08/02 12:15:06;;;;;;;1.40;1.30;;;17.20;99.90;;;;;;5045583;28;20215;-53
2021/08/02 12:17:35;;;;;;;2.47;1.20;;;17.20;99.90;;;;;;5023476;28;20289;-49
2021/08/02 12:20:03;;;;;;;2.23;0.90;;;17.30;99.90;;;;;;5042329;28;20207;-51
2021/08/02 12:22:37;;;;;;;2.93;1.10;;;17.20;99.90;;;;;;5037427;28;20253;-47
2021/08/02 12:25:07;;;;;;;1.97;1.30;;;17.30;99.90;;;;;;5045513;28;20215;-50
2021/08/02 12:27:34;;;;;;;3.60;1.20;;;17.30;99.90;;;;;;5028303;28;20276;-49
2021/08/02 12:30:03;;;;;;;1.03;0.90;;;17.40;99.90;;;;;;5045137;28;20195;-48
2021/08/02 12:32:42;;;;;;;2.23;1.70;;;17.50;99.90;;;;;;5026540;28;20219;-46
2021/08/02 12:35:10;;;;;;;2.03;1.00;;;17.50;99.90;;;;;;5043436;28;20199;-49
2021/08/02 12:37:38;;;;;;;4.73;1.10;;;17.50;99.90;;;;;;5038538;28;20219;-53
2021/08/02 12:40:07;;;;;;;1.87;0.93;;;17.50;99.90;;;;;;5043988;28;20282;-50
2021/08/02 12:42:35;;;;;;;3.53;1.23;;;17.50;99.90;;;;;;5040080;28;20195;-47
2021/08/02 12:45:01;;;;;;;2.30;1.43;;;17.50;99.90;;;;;;5039312;28;20214;-47
2021/08/02 12:47:28;;;;;;;4.27;1.13;;;17.50;99.90;;;;;;5023172;28;20588;-46
2021/08/02 12:49:57;;;;;;;1.23;0.90;;;17.50;99.90;;;;;;5042457;28;20738;-46
2021/08/02 12:52:27;;;;;;;2.00;0.80;;;17.50;99.90;;;;;;5041053;28;20204;-45
2021/08/02 12:54:54;;;;;;;5.70;1.60;;;17.50;99.90;;;;;;5040412;28;20183;-51
2021/08/02 12:57:20;;;;;;;3.87;1.47;;;17.50;99.90;;;;;;5040034;28;20294;-47